createdAt,value
2022-12-18T00:00:06.298Z,24.90
2022-12-18T00:02:34.476Z,26.40
2022-12-18T00:05:02.402Z,25.20
2022-12-18T00:07:30.331Z,25.10
2022-12-18T00:09:58.173Z,25.00
2022-12-18T00:12:26.133Z,25.60
2022-12-18T00:14:54.006Z,26.10
2022-12-18T00:17:22.013Z,26.10
2022-12-18T00:19:49.974Z,27.10
2022-12-18T00:22:19.634Z,25.30
2022-12-18T00:24:47.580Z,25.30
2022-12-18T00:27:15.530Z,25.10
2022-12-18T00:29:43.517Z,24.20
2022-12-18T00:32:11.414Z,24.90
2022-12-18T00:34:39.244Z,26.10
2022-12-18T00:37:07.084Z,23.60
2022-12-18T00:39:34.929Z,27.30
2022-12-18T00:42:21.559Z,26.10
2022-12-18T00:44:49.554Z,25.80
2022-12-18T00:47:17.594Z,25.40
2022-12-18T00:49:45.484Z,25.70
2022-12-18T00:52:13.500Z,26.70
2022-12-18T00:54:41.330Z,26.20
2022-12-18T00:57:09.237Z,26.80
2022-12-18T00:59:37.073Z,26.70
2022-12-18T01:02:04.994Z,24.70
2022-12-18T01:04:34.241Z,26.20
2022-12-18T01:07:02.238Z,25.70
2022-12-18T01:09:30.123Z,25.00
2022-12-18T01:11:58.051Z,26.40
2022-12-18T01:14:26.456Z,26.50
2022-12-18T01:16:54.375Z,26.70
2022-12-18T01:19:22.369Z,26.70
2022-12-18T01:21:50.591Z,26.90
2022-12-18T01:24:18.451Z,26.50
2022-12-18T01:26:46.659Z,28.30
2022-12-18T01:29:14.665Z,27.00
2022-12-18T01:31:42.621Z,25.50
2022-12-18T01:34:11.300Z,26.50
2022-12-18T01:36:42.510Z,25.30
2022-12-18T01:39:15.863Z,27.40
2022-12-18T01:42:04.189Z,25.70
2022-12-18T01:45:06.701Z,25.50
2022-12-18T01:48:06.469Z,25.90
2022-12-18T01:50:40.434Z,22.90
2022-12-18T01:55:48.027Z,27.70
2022-12-18T01:58:17.155Z,27.10
2022-12-18T02:00:45.970Z,26.90
2022-12-18T02:03:14.234Z,25.90
2022-12-18T02:06:05.409Z,27.50
2022-12-18T02:08:59.119Z,25.00
2022-12-18T02:11:36.721Z,28.90
2022-12-18T02:14:37.272Z,27.80
2022-12-18T02:17:12.788Z,25.70
2022-12-18T02:20:01.306Z,24.60
2022-12-18T02:22:36.075Z,26.10
2022-12-18T02:25:07.667Z,26.80
2022-12-18T02:27:38.321Z,27.00
2022-12-18T02:30:08.588Z,26.80
2022-12-18T02:32:42.702Z,26.10
2022-12-18T02:35:17.806Z,29.50
2022-12-18T02:37:48.056Z,27.00
2022-12-18T02:40:18.344Z,26.40
2022-12-18T02:42:46.221Z,27.40
2022-12-18T02:45:14.858Z,27.80
2022-12-18T02:47:46.964Z,26.30
2022-12-18T02:50:25.632Z,29.00
2022-12-18T02:52:56.540Z,28.90
2022-12-18T02:55:48.430Z,29.60
2022-12-18T02:58:42.731Z,25.90
2022-12-18T03:01:29.475Z,26.60
2022-12-18T03:04:25.268Z,26.00
2022-12-18T03:06:57.453Z,26.00
2022-12-18T03:09:39.720Z,26.60
2022-12-18T03:12:25.189Z,24.50
2022-12-18T03:15:02.639Z,22.70
2022-12-18T03:17:33.423Z,23.40
2022-12-18T03:20:11.164Z,23.60
2022-12-18T03:22:40.169Z,23.30
2022-12-18T03:25:14.285Z,25.10
2022-12-18T03:27:49.122Z,24.40
2022-12-18T03:30:18.696Z,23.70
2022-12-18T03:33:07.001Z,23.40
2022-12-18T03:35:40.816Z,26.20
2022-12-18T03:40:49.897Z,26.00
2022-12-18T03:43:52.044Z,25.20
2022-12-18T03:46:49.672Z,27.30
2022-12-18T03:49:29.993Z,27.40
2022-12-18T03:52:10.062Z,28.40
2022-12-18T03:54:41.928Z,28.00
2022-12-18T03:57:16.045Z,29.80
2022-12-18T03:59:46.777Z,26.80
2022-12-18T04:02:18.075Z,28.70
2022-12-18T04:04:47.892Z,27.90
2022-12-18T04:07:17.282Z,28.20
2022-12-18T04:09:46.830Z,28.00
2022-12-18T04:12:14.722Z,27.30
2022-12-18T04:14:42.526Z,25.70
2022-12-18T04:17:10.373Z,27.70
2022-12-18T04:19:38.306Z,27.60
2022-12-18T04:22:06.154Z,29.50
2022-12-18T04:24:33.987Z,30.90
2022-12-18T04:27:01.804Z,29.30
2022-12-18T04:29:29.760Z,28.60
2022-12-18T04:31:58.302Z,29.20
2022-12-18T04:34:26.206Z,30.40
2022-12-18T04:36:54.096Z,31.10
2022-12-18T04:39:21.912Z,32.00
2022-12-18T04:41:49.836Z,30.90
2022-12-18T04:44:17.645Z,30.30
2022-12-18T04:46:45.651Z,31.40
2022-12-18T04:49:13.654Z,32.90
2022-12-18T04:51:41.504Z,33.70
2022-12-18T04:54:09.318Z,34.80
2022-12-18T04:56:37.144Z,32.60
2022-12-18T04:59:05.829Z,32.00
2022-12-18T05:01:35.368Z,30.30
2022-12-18T05:04:04.073Z,33.20
2022-12-18T05:06:32.171Z,31.00
2022-12-18T05:08:59.942Z,30.80
2022-12-18T05:11:27.786Z,31.80
2022-12-18T05:13:58.583Z,31.90
2022-12-18T05:16:26.522Z,34.00
2022-12-18T05:18:54.550Z,31.80
2022-12-18T05:21:22.399Z,31.30
2022-12-18T05:23:50.236Z,31.60
2022-12-18T05:26:19.530Z,31.70
2022-12-18T05:28:47.751Z,32.90
2022-12-18T05:31:16.130Z,30.60
2022-12-18T05:33:44.630Z,30.20
2022-12-18T05:36:12.772Z,31.10
2022-12-18T05:38:41.543Z,28.90
2022-12-18T05:41:10.490Z,32.60
2022-12-18T05:43:40.698Z,31.20
2022-12-18T05:46:12.771Z,34.00
2022-12-18T05:48:41.698Z,32.20
2022-12-18T05:51:12.920Z,32.80
2022-12-18T05:53:41.637Z,33.90
2022-12-18T05:56:15.858Z,31.20
2022-12-18T05:58:44.875Z,33.60
2022-12-18T06:01:16.642Z,34.60
2022-12-18T06:03:45.870Z,33.90
2022-12-18T06:06:17.370Z,35.40
2022-12-18T06:08:46.743Z,34.20
2022-12-18T06:11:19.157Z,36.30
2022-12-18T06:13:53.581Z,34.60
2022-12-18T06:16:25.904Z,34.20
2022-12-18T06:18:54.105Z,32.30
2022-12-18T06:21:21.910Z,36.20
2022-12-18T06:23:49.736Z,37.60
2022-12-18T06:26:17.712Z,39.50
2022-12-18T06:28:45.595Z,39.70
2022-12-18T06:31:13.842Z,41.30
2022-12-18T06:33:42.764Z,38.20
2022-12-18T06:36:13.711Z,39.30
2022-12-18T06:38:43.699Z,38.20
2022-12-18T06:41:19.879Z,38.60
2022-12-18T06:43:47.881Z,35.10
2022-12-18T06:46:15.973Z,35.10
2022-12-18T06:48:43.892Z,36.80
2022-12-18T06:51:14.044Z,38.80
2022-12-18T06:53:45.258Z,41.80
2022-12-18T06:56:13.210Z,42.10
2022-12-18T06:58:42.875Z,39.50
2022-12-18T07:01:13.077Z,40.70
2022-12-18T07:03:43.364Z,37.00
2022-12-18T07:06:17.064Z,39.70
2022-12-18T07:08:46.362Z,38.50
2022-12-18T07:11:15.454Z,42.70
2022-12-18T07:13:45.912Z,37.50
2022-12-18T07:16:22.588Z,39.90
2022-12-18T07:18:57.691Z,40.90
2022-12-18T07:21:26.522Z,37.60
2022-12-18T07:23:55.106Z,37.40
2022-12-18T07:26:23.662Z,35.10
2022-12-18T07:28:51.686Z,37.60
2022-12-18T07:31:23.512Z,34.00
2022-12-18T07:33:54.337Z,29.90
2022-12-18T07:36:26.019Z,32.90
2022-12-18T07:38:54.088Z,30.40
2022-12-18T07:41:24.672Z,31.30
2022-12-18T07:43:52.696Z,28.00
2022-12-18T07:46:20.796Z,27.70
2022-12-18T07:48:49.983Z,29.00
2022-12-18T07:51:19.757Z,30.50
2022-12-18T07:53:51.788Z,28.30
2022-12-18T07:56:30.565Z,30.30
2022-12-18T07:59:00.329Z,30.10
2022-12-18T08:01:30.848Z,26.50
2022-12-18T08:03:59.636Z,26.60
2022-12-18T08:06:27.619Z,26.30
2022-12-18T08:08:56.990Z,25.40
2022-12-18T08:11:27.805Z,27.40
2022-12-18T08:13:56.795Z,25.10
2022-12-18T08:16:25.617Z,25.60
2022-12-18T08:18:54.488Z,27.10
2022-12-18T08:21:29.674Z,28.00
2022-12-18T08:23:59.960Z,27.30
2022-12-18T08:26:30.631Z,28.40
2022-12-18T08:28:59.740Z,25.50
2022-12-18T08:31:29.393Z,25.20
2022-12-18T08:33:58.333Z,26.30
2022-12-18T08:36:26.472Z,23.80
2022-12-18T08:38:56.183Z,25.10
2022-12-18T08:41:24.513Z,26.50
2022-12-18T08:44:10.917Z,28.60
2022-12-18T08:46:41.622Z,27.00
2022-12-18T08:49:10.936Z,25.30
2022-12-18T08:51:40.082Z,25.00
2022-12-18T08:54:17.080Z,25.00
2022-12-18T08:56:44.960Z,23.50
2022-12-18T08:59:19.575Z,25.10
2022-12-18T09:01:48.525Z,24.50
2022-12-18T09:04:17.184Z,23.70
2022-12-18T09:06:45.172Z,22.50
2022-12-18T09:09:13.648Z,25.90
2022-12-18T09:11:41.825Z,23.20
2022-12-18T09:14:10.697Z,23.30
2022-12-18T09:16:38.834Z,22.20
2022-12-18T09:19:06.902Z,20.90
2022-12-18T09:21:42.264Z,23.60
2022-12-18T09:24:15.812Z,21.00
2022-12-18T09:26:47.349Z,23.10
2022-12-18T09:29:18.814Z,22.50
2022-12-18T09:31:47.723Z,22.40
2022-12-18T09:34:15.978Z,21.30
2022-12-18T09:36:44.038Z,21.60
2022-12-18T09:39:11.982Z,24.50
2022-12-18T09:41:56.900Z,21.90
2022-12-18T09:44:24.810Z,23.70
2022-12-18T09:47:11.612Z,22.50
2022-12-18T09:49:44.918Z,19.90
2022-12-18T09:52:18.325Z,19.90
2022-12-18T09:54:53.363Z,20.70
2022-12-18T09:57:24.314Z,19.20
2022-12-18T10:00:12.612Z,16.00
2022-12-18T10:02:40.841Z,17.20
2022-12-18T10:05:16.880Z,16.30
2022-12-18T10:08:14.573Z,17.40
2022-12-18T10:11:04.566Z,16.10
2022-12-18T10:13:43.254Z,16.70
2022-12-18T10:16:16.379Z,18.80
2022-12-18T10:19:16.872Z,18.00
2022-12-18T10:22:03.709Z,17.00
2022-12-18T10:24:54.988Z,15.70
2022-12-18T10:27:27.348Z,13.90
2022-12-18T10:29:55.668Z,14.40
2022-12-18T10:32:29.053Z,15.10
2022-12-18T10:35:00.661Z,14.00
2022-12-18T10:37:30.996Z,13.40
2022-12-18T10:40:22.031Z,13.80
2022-12-18T10:43:15.673Z,13.40
2022-12-18T10:46:15.820Z,14.20
2022-12-18T10:48:50.544Z,14.40
2022-12-18T10:51:31.476Z,14.30
2022-12-18T10:54:23.184Z,14.70
2022-12-18T10:56:51.170Z,12.00
2022-12-18T10:59:19.869Z,12.10
2022-12-18T11:01:55.696Z,12.10
2022-12-18T11:04:29.956Z,13.50
2022-12-18T11:07:00.848Z,13.60
2022-12-18T11:09:32.825Z,13.30
2022-12-18T11:12:04.645Z,13.70
2022-12-18T11:14:39.955Z,13.00
2022-12-18T11:17:29.526Z,11.60
2022-12-18T11:20:20.424Z,11.90
2022-12-18T11:23:14.713Z,12.60
2022-12-18T11:25:52.999Z,14.50
2022-12-18T11:28:35.411Z,13.50
2022-12-18T11:31:17.985Z,17.70
2022-12-18T11:34:26.974Z,14.20
2022-12-18T11:36:47.765Z,12.70
2022-12-18T11:39:27.106Z,13.50
2022-12-18T11:42:12.468Z,13.00
2022-12-18T11:44:55.805Z,11.70
2022-12-18T11:47:59.220Z,12.90
2022-12-18T11:50:35.829Z,10.20
2022-12-18T11:53:06.214Z,10.40
2022-12-18T11:56:18.571Z,11.10
2022-12-18T11:58:49.004Z,12.10
2022-12-18T12:01:44.294Z,10.70
2022-12-18T12:04:28.656Z,11.40
2022-12-18T12:07:16.141Z,13.30
2022-12-18T12:09:59.173Z,11.10
2022-12-18T12:12:48.741Z,10.40
2022-12-18T12:15:43.287Z,10.00
2022-12-18T12:18:20.142Z,10.80
2022-12-18T12:21:33.082Z,11.20
2022-12-18T12:24:00.964Z,10.70
2022-12-18T12:27:00.458Z,12.60
2022-12-18T12:29:52.282Z,11.70
2022-12-18T12:32:32.305Z,12.60
2022-12-18T12:35:19.245Z,12.70
2022-12-18T12:38:12.241Z,13.30
2022-12-18T12:40:56.677Z,12.80
2022-12-18T12:43:51.457Z,13.60
2022-12-18T12:46:22.664Z,12.80
2022-12-18T12:48:54.950Z,12.70
2022-12-18T12:51:33.263Z,12.70
2022-12-18T12:54:05.089Z,12.50
2022-12-18T12:56:45.269Z,12.20
2022-12-18T12:59:41.299Z,12.40
2022-12-18T13:02:25.583Z,12.20
2022-12-18T13:05:04.833Z,13.00
2022-12-18T13:08:07.236Z,12.70
2022-12-18T13:10:41.625Z,14.20
2022-12-18T13:13:23.667Z,14.20
2022-12-18T13:16:08.133Z,11.60
2022-12-18T13:18:36.751Z,11.60
2022-12-18T13:21:21.747Z,10.80
2022-12-18T13:23:52.639Z,12.10
2022-12-18T13:26:26.442Z,11.50
2022-12-18T13:28:58.753Z,11.50
2022-12-18T13:31:42.219Z,11.90
2022-12-18T13:34:27.442Z,12.20
2022-12-18T13:37:32.933Z,12.30
2022-12-18T13:40:00.988Z,12.90
2022-12-18T13:42:58.364Z,13.50
2022-12-18T13:45:42.016Z,14.00
2022-12-18T13:50:50.699Z,16.10
2022-12-18T13:53:29.921Z,15.00
2022-12-18T13:55:58.592Z,14.50
2022-12-18T13:58:26.470Z,16.60
2022-12-18T14:00:54.384Z,15.20
2022-12-18T14:03:27.391Z,15.40
2022-12-18T14:05:59.960Z,16.80
2022-12-18T14:08:35.298Z,15.70
2022-12-18T14:11:06.107Z,16.00
2022-12-18T14:13:40.821Z,17.80
2022-12-18T14:16:13.242Z,18.00
2022-12-18T14:19:04.116Z,17.30
2022-12-18T14:21:49.211Z,17.40
2022-12-18T14:26:51.468Z,16.80
2022-12-18T14:29:19.331Z,16.90
2022-12-18T14:32:06.967Z,17.30
2022-12-18T14:34:36.255Z,19.50
2022-12-18T14:37:04.559Z,17.50
2022-12-18T14:39:32.382Z,18.50
2022-12-18T14:42:00.320Z,17.90
2022-12-18T14:44:34.534Z,18.60
2022-12-18T14:47:16.449Z,18.50
2022-12-18T14:49:44.862Z,17.80
2022-12-18T14:52:26.540Z,19.10
2022-12-18T14:54:54.663Z,21.20
2022-12-18T14:57:26.158Z,18.80
2022-12-18T14:59:54.072Z,17.90
2022-12-18T15:02:26.204Z,18.70
2022-12-18T15:05:36.049Z,19.60
2022-12-18T15:08:04.246Z,18.30
2022-12-18T15:10:34.611Z,18.70
2022-12-18T15:13:03.998Z,17.80
2022-12-18T15:15:37.958Z,19.50
2022-12-18T15:20:54.113Z,21.50
2022-12-18T15:23:37.328Z,21.50
2022-12-18T15:26:13.759Z,20.50
2022-12-18T15:28:56.581Z,19.60
2022-12-18T15:31:30.704Z,19.50
2022-12-18T15:34:00.254Z,21.60
2022-12-18T15:36:31.275Z,19.90
2022-12-18T15:39:05.071Z,19.70
2022-12-18T15:41:37.352Z,20.90
2022-12-18T15:44:23.466Z,20.00
2022-12-18T15:46:51.415Z,20.70
2022-12-18T15:49:19.401Z,20.10
2022-12-18T15:51:53.880Z,20.00
2022-12-18T15:54:40.797Z,19.30
2022-12-18T15:57:26.447Z,21.00
2022-12-18T16:00:00.106Z,22.40
2022-12-18T16:02:29.728Z,20.20
2022-12-18T16:04:58.099Z,21.80
2022-12-18T16:07:28.193Z,24.10
2022-12-18T16:10:01.259Z,21.60
2022-12-18T16:12:30.579Z,20.50
2022-12-18T16:14:58.412Z,21.90
2022-12-18T16:17:26.396Z,21.60
2022-12-18T16:19:54.293Z,21.00
2022-12-18T16:22:23.933Z,22.00
2022-12-18T16:24:52.958Z,22.10
2022-12-18T16:27:22.415Z,21.70
2022-12-18T16:29:50.298Z,22.60
2022-12-18T16:32:20.832Z,23.90
2022-12-18T16:34:48.819Z,23.10
2022-12-18T16:37:17.652Z,21.50
2022-12-18T16:39:45.633Z,22.90
2022-12-18T16:42:20.550Z,22.10
2022-12-18T16:44:50.498Z,22.80
2022-12-18T16:47:19.529Z,22.20
2022-12-18T16:49:49.121Z,21.60
2022-12-18T16:52:18.412Z,20.90
2022-12-18T16:54:46.420Z,21.10
2022-12-18T16:57:18.167Z,22.80
2022-12-18T16:59:46.823Z,20.10
2022-12-18T17:02:23.549Z,21.40
2022-12-18T17:04:55.358Z,23.00
2022-12-18T17:07:24.784Z,22.10
2022-12-18T17:09:54.332Z,22.50
2022-12-18T17:12:22.929Z,24.30
2022-12-18T17:14:50.937Z,22.70
2022-12-18T17:17:21.459Z,21.80
2022-12-18T17:19:51.977Z,22.90
2022-12-18T17:22:23.321Z,21.80
2022-12-18T17:24:51.413Z,22.00
2022-12-18T17:27:19.418Z,23.80
2022-12-18T17:29:48.783Z,24.40
2022-12-18T17:32:17.884Z,23.60
2022-12-18T17:34:46.103Z,23.90
2022-12-18T17:37:14.183Z,25.20
2022-12-18T17:39:42.433Z,37.30
2022-12-18T17:42:10.721Z,29.80
2022-12-18T17:44:45.027Z,28.90
2022-12-18T17:47:14.055Z,28.20
2022-12-18T17:49:42.056Z,28.00
2022-12-18T17:52:10.382Z,27.20
2022-12-18T17:54:40.001Z,27.00
2022-12-18T17:57:08.356Z,34.00
2022-12-18T17:59:36.423Z,36.40
2022-12-18T18:02:04.693Z,34.80
2022-12-18T18:04:32.736Z,34.40
2022-12-18T18:07:00.650Z,29.80
2022-12-18T18:09:28.596Z,30.90
2022-12-18T18:12:15.083Z,28.10
2022-12-18T18:14:43.084Z,30.80
2022-12-18T18:17:11.343Z,30.30
2022-12-18T18:19:39.220Z,30.70
2022-12-18T18:22:08.467Z,29.30
2022-12-18T18:24:36.691Z,27.60
2022-12-18T18:27:04.636Z,28.40
2022-12-18T18:29:32.733Z,25.10
2022-12-18T18:32:00.742Z,25.70
2022-12-18T18:34:32.020Z,25.40
2022-12-18T18:37:01.023Z,23.90
2022-12-18T18:39:29.869Z,26.60
2022-12-18T18:41:57.693Z,27.90
2022-12-18T18:44:26.441Z,27.60
2022-12-18T18:46:56.414Z,27.50
2022-12-18T18:49:27.825Z,26.70
2022-12-18T18:51:57.538Z,25.30
2022-12-18T18:54:27.127Z,24.40
2022-12-18T18:59:42.866Z,30.50
2022-12-18T19:02:15.422Z,32.90
2022-12-18T19:04:46.687Z,34.90
2022-12-18T19:07:29.994Z,28.70
2022-12-18T19:10:04.657Z,29.10
2022-12-18T19:12:53.021Z,28.00
2022-12-18T19:15:21.781Z,27.20
2022-12-18T19:17:49.984Z,29.90
2022-12-18T19:20:18.847Z,27.80
2022-12-18T19:22:55.787Z,27.50
2022-12-18T19:25:29.953Z,25.60
2022-12-18T19:28:15.990Z,27.90
2022-12-18T19:30:58.975Z,26.20
2022-12-18T19:33:43.201Z,26.80
2022-12-18T19:36:17.372Z,25.70
2022-12-18T19:38:46.208Z,27.10
2022-12-18T19:41:15.603Z,24.70
2022-12-18T19:43:44.726Z,26.50
2022-12-18T19:46:18.951Z,26.70
2022-12-18T19:48:47.800Z,28.00
2022-12-18T19:51:24.608Z,28.50
2022-12-18T19:53:58.502Z,27.30
2022-12-18T19:56:31.500Z,24.60
2022-12-18T19:59:00.235Z,25.90
2022-12-18T20:01:29.699Z,38.60
2022-12-18T20:03:59.062Z,36.80
2022-12-18T20:06:31.976Z,35.00
2022-12-18T20:09:03.671Z,56.30
2022-12-18T20:11:33.514Z,70.30
2022-12-18T20:14:05.332Z,80.60
2022-12-18T20:16:33.346Z,46.00
2022-12-18T20:19:01.839Z,38.70
2022-12-18T20:21:30.191Z,37.00
2022-12-18T20:24:00.051Z,44.10
2022-12-18T20:26:28.326Z,36.00
2022-12-18T20:28:56.642Z,35.60
2022-12-18T20:31:24.809Z,32.30
2022-12-18T20:33:53.432Z,33.00
2022-12-18T20:36:25.815Z,28.70
2022-12-18T20:38:59.115Z,30.50
2022-12-18T20:41:37.224Z,28.40
2022-12-18T20:44:22.662Z,28.50
2022-12-18T20:46:54.492Z,28.80
2022-12-18T20:49:24.581Z,28.00
2022-12-18T20:51:54.617Z,27.90
2022-12-18T20:54:25.129Z,28.70
2022-12-18T20:56:53.319Z,30.40
2022-12-18T20:59:23.271Z,29.20
2022-12-18T21:01:55.211Z,26.80
2022-12-18T21:04:23.646Z,30.80
2022-12-18T21:06:55.815Z,42.50
2022-12-18T21:09:37.140Z,38.40
2022-12-18T21:12:34.896Z,37.30
2022-12-18T21:15:10.154Z,29.50
2022-12-18T21:17:44.560Z,30.70
2022-12-18T21:20:17.947Z,28.50
2022-12-18T21:22:47.307Z,31.90
2022-12-18T21:25:15.267Z,27.20
2022-12-18T21:27:43.104Z,25.80
2022-12-18T21:30:11.867Z,26.50
2022-12-18T21:32:40.215Z,26.70
2022-12-18T21:35:08.444Z,27.30
2022-12-18T21:37:36.699Z,24.50
2022-12-18T21:40:06.290Z,24.60
2022-12-18T21:42:52.681Z,23.60
2022-12-18T21:45:20.870Z,24.80
2022-12-18T21:47:50.222Z,26.10
2022-12-18T21:50:18.340Z,25.00
2022-12-18T21:52:46.384Z,26.50
2022-12-18T21:55:14.237Z,25.40
2022-12-18T21:57:42.241Z,26.80
2022-12-18T22:00:19.334Z,25.10
2022-12-18T22:03:01.108Z,26.20
2022-12-18T22:05:37.323Z,26.20
2022-12-18T22:08:06.819Z,25.00
2022-12-18T22:10:35.595Z,25.90
2022-12-18T22:13:05.090Z,23.50
2022-12-18T22:15:33.741Z,26.70
2022-12-18T22:18:02.160Z,24.40
2022-12-18T22:20:30.259Z,24.90
2022-12-18T22:22:59.050Z,26.60
2022-12-18T22:25:30.612Z,29.90
2022-12-18T22:28:17.034Z,28.50
2022-12-18T22:30:44.938Z,25.20
2022-12-18T22:33:12.925Z,23.90
2022-12-18T22:35:40.842Z,27.30
2022-12-18T22:38:09.596Z,27.30
2022-12-18T22:40:37.489Z,25.40
2022-12-18T22:43:05.319Z,26.20
2022-12-18T22:45:34.142Z,27.50
2022-12-18T22:48:06.478Z,28.30
2022-12-18T22:50:34.303Z,29.10
2022-12-18T22:53:02.137Z,26.80
2022-12-18T22:55:29.964Z,29.30
2022-12-18T22:57:57.845Z,27.80
2022-12-18T23:00:26.573Z,28.60
2022-12-18T23:02:59.801Z,27.50
2022-12-18T23:05:31.019Z,27.90
2022-12-18T23:07:59.248Z,28.30
2022-12-18T23:10:27.518Z,25.70
2022-12-18T23:12:55.571Z,27.20
2022-12-18T23:15:28.286Z,27.20
2022-12-18T23:17:58.764Z,26.60
2022-12-18T23:20:27.849Z,27.00
2022-12-18T23:22:56.102Z,26.60
2022-12-18T23:25:24.050Z,25.50
2022-12-18T23:27:52.139Z,25.50
2022-12-18T23:30:20.067Z,23.90
2022-12-18T23:32:48.456Z,27.20
2022-12-18T23:35:17.630Z,25.60
2022-12-18T23:38:03.678Z,26.40
2022-12-18T23:40:31.863Z,26.50
2022-12-18T23:43:00.513Z,27.20
2022-12-18T23:45:28.791Z,26.60
2022-12-18T23:47:56.794Z,28.20
2022-12-18T23:50:29.141Z,25.30
2022-12-18T23:53:05.343Z,24.90
2022-12-18T23:55:39.761Z,26.40
2022-12-18T23:58:15.187Z,26.80
